Accueil
METAR-TAF:

METAR-TAF

Aéroports :

Bingöl, Turquie

latitude: 38-51-40N, longitude: 40-35-33E, altitude: 1063 m

Observation

Le bulletin a été fait il y a 6 heures et 56 minutes, à 12:50 UTC
Vent 1 kt de direction variable
Température 15°C
Humidité 20%
Pression 1020 hPa
Visibilité 10 km ou plus
pas de nuages en-dessous de 1500 mètres et pas de cumulonimbus.

METAR: LTCU 201250Z VRB01KT CAVOK 15/M08 Q1020

Heure: 22:46 (19:46 UTC)

Prévision

Le bulletin a été fait il y a 6 heures et 6 minutes, à 13:40 UTC
Prévision valable du 20 à 15 UTC au 20 à 24 UTC
Vent 2 kt de direction variable
Visibilité 10 km ou plus
pas de nuages en-dessous de 1500 mètres et pas de cumulonimbus.

TAF: LTCU 201340Z 2015/2024 VRB02KT CAVOK

Observations et prévisions météorologiques de plus de 4000 aéroports (messages METAR et TAF).

Les stations disponibles sont représentées par des disques jaunes et rouges sur la carte.

Passer la souris dessus pour voir le nom de la station.

Cliquer dessus pour voir les observations et prévisions météorologiques.

Pour changer de carte: cliquez sur les boutons verts avec une croix noire pour zoomer, sur le bouton vert avec un tiret pour effectuer un zoom arrière, ou sur les flèches vertes pour les cartes adjacentes.


METAR-TAF: